Terminal Aerodrome Forecast
Issued by NWS Omaha/Valley, NE

Home | Current Version | Previous Version | Text Only | Print | Product List | Glossary On
Versions: 1 2 3 4 5 6 7 8 9 10 11 12 13 14 15 16 17 18 19 20 21 22 23 24 25 26 27 28
000
FTUS43 KOAX 242320
TAFLNK
TAF
KLNK 242320Z 2500/2524 31012KT P6SM VCSH BKN050
     FM250400 34005KT P6SM OVC025
     FM250800 33005KT P6SM OVC015
      TEMPO 2508/2512 4SM SHRA OVC009
     FM251200 03005KT 6SM SHRA OVC009
     FM251700 35007KT 5SM SHRA OVC008=

USA.gov is the U.S. government's official web portal to all federal, state and local government web resources and services.